createdAt,value
2018-09-01T00:00:23.678Z,47.39
2018-09-01T00:02:51.787Z,47.26
2018-09-01T00:05:19.942Z,47.18
2018-09-01T00:07:48.052Z,47.42
2018-09-01T00:10:16.242Z,47.42
2018-09-01T00:12:44.498Z,47.64
2018-09-01T00:15:12.784Z,47.66
2018-09-01T00:17:40.911Z,47.37
2018-09-01T00:20:09.170Z,47.33
2018-09-01T00:22:37.480Z,47.37
2018-09-01T00:25:06.025Z,48.15
2018-09-01T00:27:34.391Z,47.74
2018-09-01T00:30:02.706Z,48.01
2018-09-01T00:32:30.815Z,48.24
2018-09-01T00:34:58.986Z,47.50
2018-09-01T00:37:32.515Z,48.54
2018-09-01T00:40:00.696Z,48.22
2018-09-01T00:42:28.803Z,48.14
2018-09-01T00:44:56.934Z,48.50
2018-09-01T00:47:25.053Z,48.73
2018-09-01T00:49:53.216Z,48.88
2018-09-01T00:52:21.504Z,48.55
2018-09-01T00:54:49.659Z,48.89
2018-09-01T00:57:17.831Z,48.96
2018-09-01T00:59:45.973Z,49.27
2018-09-01T01:02:14.255Z,49.29
2018-09-01T01:04:42.464Z,49.31
2018-09-01T01:07:12.443Z,49.11
2018-09-01T01:09:40.571Z,49.85
2018-09-01T01:12:08.682Z,49.76
2018-09-01T01:14:36.821Z,49.87
2018-09-01T01:17:04.999Z,50.12
2018-09-01T01:19:33.074Z,50.00
2018-09-01T01:22:01.164Z,50.32
2018-09-01T01:24:29.240Z,50.12
2018-09-01T01:26:57.339Z,49.80
2018-09-01T01:29:26.213Z,49.84
2018-09-01T01:31:54.449Z,49.74
2018-09-01T01:34:22.842Z,50.17
2018-09-01T01:36:50.942Z,50.54
2018-09-01T01:39:19.046Z,50.34
2018-09-01T01:41:47.222Z,50.98
2018-09-01T01:44:15.585Z,50.31
2018-09-01T01:46:43.778Z,51.09
2018-09-01T01:49:12.115Z,51.51
2018-09-01T01:51:40.392Z,51.35
2018-09-01T01:54:08.587Z,52.18
2018-09-01T01:56:36.694Z,51.37
2018-09-01T01:59:05.247Z,51.58
2018-09-01T02:01:33.361Z,52.05
2018-09-01T02:04:01.484Z,52.01
2018-09-01T02:06:29.681Z,52.08
2018-09-01T02:08:58.309Z,51.71
2018-09-01T02:11:26.395Z,51.97
2018-09-01T02:13:54.483Z,52.16
2018-09-01T02:16:22.601Z,52.10
2018-09-01T02:18:50.677Z,52.16
2018-09-01T02:21:19.090Z,52.45
2018-09-01T02:23:47.474Z,52.12
2018-09-01T02:26:15.692Z,51.96
2018-09-01T02:28:43.865Z,52.46
2018-09-01T02:31:11.962Z,52.63
2018-09-01T02:33:40.269Z,52.76
2018-09-01T02:36:08.455Z,52.75
2018-09-01T02:38:36.732Z,52.63
2018-09-01T02:41:05.017Z,52.38
2018-09-01T02:43:33.269Z,53.56
2018-09-01T02:46:01.547Z,52.90
2018-09-01T02:48:29.961Z,53.09
2018-09-01T02:50:58.521Z,53.40
2018-09-01T02:53:26.677Z,52.73
2018-09-01T02:55:54.752Z,53.29
2018-09-01T02:58:22.907Z,53.10
2018-09-01T03:00:56.334Z,53.10
2018-09-01T03:03:24.456Z,53.54
2018-09-01T03:05:52.615Z,52.79
2018-09-01T03:08:20.734Z,53.76
2018-09-01T03:10:48.866Z,53.35
2018-09-01T03:13:16.957Z,53.71
2018-09-01T03:15:45.191Z,54.00
2018-09-01T03:18:13.306Z,54.08
2018-09-01T03:20:41.480Z,54.63
2018-09-01T03:23:09.573Z,54.46
2018-09-01T03:25:37.714Z,54.43
2018-09-01T03:28:06.823Z,54.86
2018-09-01T03:30:34.997Z,54.56
2018-09-01T03:33:03.684Z,54.54
2018-09-01T03:35:31.816Z,55.14
2018-09-01T03:37:59.929Z,55.29
2018-09-01T03:40:28.376Z,55.35
2018-09-01T03:42:56.498Z,55.43
2018-09-01T03:45:24.594Z,54.89
2018-09-01T03:47:53.394Z,55.35
2018-09-01T03:50:21.463Z,55.88
2018-09-01T03:52:50.115Z,55.86
2018-09-01T03:55:18.411Z,56.00
2018-09-01T03:57:46.842Z,56.17
2018-09-01T04:00:14.975Z,56.29
2018-09-01T04:02:43.088Z,56.47
2018-09-01T04:05:11.230Z,56.92
2018-09-01T04:07:39.387Z,56.79
2018-09-01T04:10:08.556Z,56.61
2018-09-01T04:12:37.063Z,57.01
2018-09-01T04:15:05.878Z,57.03
2018-09-01T04:17:34.053Z,57.27
2018-09-01T04:20:02.250Z,56.97
2018-09-01T04:22:30.356Z,57.25
2018-09-01T04:24:58.518Z,57.44
2018-09-01T04:27:27.057Z,58.00
2018-09-01T04:29:55.119Z,58.43
2018-09-01T04:32:23.236Z,58.62
2018-09-01T04:34:52.092Z,58.73
2018-09-01T04:37:20.215Z,59.21
2018-09-01T04:39:48.482Z,58.81
2018-09-01T04:42:17.171Z,58.68
2018-09-01T04:44:45.655Z,58.85
2018-09-01T04:47:13.828Z,58.92
2018-09-01T04:49:41.888Z,58.92
2018-09-01T04:52:10.744Z,58.82
2018-09-01T04:54:38.994Z,58.51
2018-09-01T04:57:07.272Z,59.59
2018-09-01T04:59:35.953Z,59.44
2018-09-01T05:02:04.486Z,59.45
2018-09-01T05:04:32.603Z,60.17
2018-09-01T05:07:00.827Z,59.96
2018-09-01T05:09:29.127Z,59.64
2018-09-01T05:11:57.283Z,59.51
2018-09-01T05:14:25.353Z,60.05
2018-09-01T05:16:53.991Z,60.38
2018-09-01T05:19:22.363Z,59.90
2018-09-01T05:21:53.176Z,59.94
2018-09-01T05:24:21.296Z,60.51
2018-09-01T05:26:49.424Z,60.39
2018-09-01T05:29:17.699Z,61.52
2018-09-01T05:31:45.792Z,61.32
2018-09-01T05:34:15.060Z,60.96
2018-09-01T05:36:43.248Z,60.63
2018-09-01T05:39:11.272Z,61.58
2018-09-01T05:41:39.406Z,60.85
2018-09-01T05:44:07.509Z,60.53
2018-09-01T05:46:35.668Z,61.74
2018-09-01T05:49:03.789Z,61.22
2018-09-01T05:51:31.970Z,61.33
2018-09-01T05:54:00.058Z,61.23
2018-09-01T05:56:28.169Z,61.13
2018-09-01T05:58:56.294Z,61.30
2018-09-01T06:01:24.381Z,61.40
2018-09-01T06:03:52.552Z,60.57
2018-09-01T06:06:20.897Z,61.34
2018-09-01T06:08:48.987Z,60.75
2018-09-01T06:11:17.665Z,60.96
2018-09-01T06:13:45.767Z,61.16
2018-09-01T06:16:13.971Z,61.21
2018-09-01T06:18:42.041Z,61.32
2018-09-01T06:21:10.103Z,61.79
2018-09-01T06:23:38.187Z,62.03
2018-09-01T06:26:06.488Z,61.22
2018-09-01T06:28:37.828Z,62.15
2018-09-01T06:31:06.203Z,61.46
2018-09-01T06:33:34.271Z,61.03
2018-09-01T06:36:02.329Z,61.23
2018-09-01T06:38:30.652Z,61.74
2018-09-01T06:40:58.793Z,62.04
2018-09-01T06:43:26.895Z,61.64
2018-09-01T06:45:55.343Z,61.96
2018-09-01T06:48:23.520Z,61.84
2018-09-01T06:50:52.119Z,61.19
2018-09-01T06:53:20.252Z,61.12
2018-09-01T06:55:48.330Z,60.85
2018-09-01T06:58:16.415Z,60.62
2018-09-01T07:00:44.620Z,61.07
2018-09-01T07:03:12.717Z,60.62
2018-09-01T07:05:40.798Z,60.91
2018-09-01T07:08:09.002Z,60.46
2018-09-01T07:10:38.592Z,59.93
2018-09-01T07:13:06.788Z,59.82
2018-09-01T07:15:34.858Z,59.47
2018-09-01T07:18:03.019Z,60.02
2018-09-01T07:20:31.145Z,59.35
2018-09-01T07:22:59.303Z,58.79
2018-09-01T07:25:27.359Z,58.68
2018-09-01T07:27:55.473Z,58.13
2018-09-01T07:30:23.753Z,58.80
2018-09-01T07:32:51.894Z,58.65
2018-09-01T07:35:19.979Z,58.22
2018-09-01T07:37:48.205Z,57.96
2018-09-01T07:40:16.307Z,57.52
2018-09-01T07:42:44.448Z,57.50
2018-09-01T07:45:12.661Z,57.33
2018-09-01T07:47:40.834Z,56.63
2018-09-01T07:50:09.006Z,56.73
2018-09-01T07:52:38.751Z,56.41
2018-09-01T07:55:07.228Z,55.79
2018-09-01T07:57:35.400Z,55.90
2018-09-01T08:00:03.847Z,56.02
2018-09-01T08:02:32.183Z,55.40
2018-09-01T08:05:00.259Z,55.27
2018-09-01T08:07:28.666Z,55.00
2018-09-01T08:09:56.774Z,55.59
2018-09-01T08:12:24.995Z,54.92
2018-09-01T08:14:53.207Z,54.49
2018-09-01T08:17:21.381Z,54.73
2018-09-01T08:19:49.548Z,54.67
2018-09-01T08:22:17.778Z,54.54
2018-09-01T08:24:45.998Z,55.03
2018-09-01T08:27:14.055Z,54.03
2018-09-01T08:29:42.143Z,53.76
2018-09-01T08:32:10.280Z,53.99
2018-09-01T08:34:38.463Z,53.57
2018-09-01T08:37:06.711Z,53.88
2018-09-01T08:39:34.871Z,53.49
2018-09-01T08:42:03.015Z,52.99
2018-09-01T08:44:33.939Z,53.22
2018-09-01T08:47:02.123Z,53.33
2018-09-01T08:49:30.655Z,52.94
2018-09-01T08:51:58.828Z,52.40
2018-09-01T08:54:27.094Z,51.65
2018-09-01T08:56:55.188Z,51.74
2018-09-01T08:59:23.443Z,51.44
2018-09-01T09:01:51.609Z,50.87
2018-09-01T09:04:20.025Z,50.74
2018-09-01T09:06:48.494Z,50.27
2018-09-01T09:09:17.010Z,49.91
2018-09-01T09:11:45.123Z,50.25
2018-09-01T09:14:13.198Z,50.10
2018-09-01T09:16:41.455Z,49.47
2018-09-01T09:19:09.548Z,49.59
2018-09-01T09:21:38.516Z,48.85
2018-09-01T09:24:07.001Z,48.50
2018-09-01T09:26:35.907Z,48.34
2018-09-01T09:29:04.026Z,47.56
2018-09-01T09:31:32.116Z,47.99
2018-09-01T09:34:00.233Z,46.37
2018-09-01T09:36:28.526Z,47.29
2018-09-01T09:38:56.435Z,45.93
2018-09-01T09:41:24.490Z,45.32
2018-09-01T09:43:52.684Z,45.05
2018-09-01T09:46:20.829Z,47.14
2018-09-01T09:48:49.022Z,44.90
2018-09-01T09:51:17.171Z,45.52
2018-09-01T09:53:45.259Z,44.77
2018-09-01T09:56:14.012Z,44.09
2018-09-01T09:58:42.235Z,44.27
2018-09-01T10:01:15.882Z,44.47
2018-09-01T10:03:44.053Z,44.31
2018-09-01T10:06:12.223Z,43.64
2018-09-01T10:08:40.497Z,43.56
2018-09-01T10:11:08.811Z,44.45
2018-09-01T10:13:36.882Z,42.10
2018-09-01T10:16:05.032Z,43.57
2018-09-01T10:18:33.264Z,42.21
2018-09-01T10:21:01.512Z,42.78
2018-09-01T10:23:29.715Z,42.08
2018-09-01T10:25:57.843Z,40.28
2018-09-01T10:28:26.132Z,42.94
2018-09-01T10:30:54.252Z,41.44
2018-09-01T10:33:22.466Z,40.53
2018-09-01T10:35:51.123Z,39.93
2018-09-01T10:38:19.576Z,40.53
2018-09-01T10:40:47.779Z,38.93
2018-09-01T10:43:15.980Z,38.90
2018-09-01T10:45:44.324Z,38.55
2018-09-01T10:48:12.434Z,39.78
2018-09-01T10:50:40.622Z,38.13
2018-09-01T10:53:09.663Z,38.67
2018-09-01T10:55:38.767Z,38.67
2018-09-01T10:58:06.826Z,38.94
2018-09-01T11:00:34.933Z,38.40
2018-09-01T11:03:03.051Z,39.70
2018-09-01T11:05:31.186Z,38.80
2018-09-01T11:07:59.295Z,39.21
2018-09-01T11:10:27.344Z,37.75
2018-09-01T11:12:55.415Z,36.03
2018-09-01T11:15:23.520Z,37.62
2018-09-01T11:17:51.642Z,37.07
2018-09-01T11:20:19.805Z,38.76
2018-09-01T11:22:47.841Z,39.79
2018-09-01T11:25:16.474Z,38.73
2018-09-01T11:27:44.944Z,37.62
2018-09-01T11:30:13.028Z,38.95
2018-09-01T11:32:41.385Z,36.64
2018-09-01T11:35:09.911Z,33.88
2018-09-01T11:37:38.980Z,34.01
2018-09-01T11:40:07.929Z,31.58
2018-09-01T11:42:36.052Z,31.12
2018-09-01T11:45:04.099Z,35.28
2018-09-01T11:47:32.194Z,35.20
2018-09-01T11:50:00.342Z,35.81
2018-09-01T11:52:28.519Z,34.82
2018-09-01T11:54:56.674Z,31.88
2018-09-01T11:57:24.847Z,27.99
2018-09-01T11:59:53.028Z,28.45
2018-09-01T12:02:21.171Z,30.42
2018-09-01T12:04:49.224Z,31.17
2018-09-01T12:07:17.336Z,28.85
2018-09-01T12:09:45.707Z,27.88
2018-09-01T12:12:13.899Z,33.03
2018-09-01T12:14:42.103Z,31.08
2018-09-01T12:17:10.263Z,28.10
2018-09-01T12:19:39.275Z,25.99
2018-09-01T12:22:07.494Z,25.43
2018-09-01T12:24:35.587Z,24.68
2018-09-01T12:27:03.715Z,24.20
2018-09-01T12:29:31.809Z,22.60
2018-09-01T12:32:00.168Z,24.36
2018-09-01T12:34:28.624Z,23.66
2018-09-01T12:36:56.955Z,21.31
2018-09-01T12:39:25.292Z,20.68
2018-09-01T12:41:54.663Z,19.12
2018-09-01T12:44:25.071Z,19.02
2018-09-01T12:46:55.302Z,17.92
2018-09-01T12:49:24.003Z,19.96
2018-09-01T12:51:52.844Z,24.47
2018-09-01T12:54:22.036Z,25.10
2018-09-01T12:59:29.784Z,19.36
2018-09-01T13:01:57.896Z,17.82
2018-09-01T13:04:26.191Z,16.71
2018-09-01T13:06:54.333Z,16.57
2018-09-01T13:09:22.674Z,17.58
2018-09-01T13:11:51.262Z,17.30
2018-09-01T13:14:19.487Z,15.04
2018-09-01T13:16:47.660Z,17.24
2018-09-01T13:19:15.744Z,15.47
2018-09-01T13:21:43.922Z,15.85
2018-09-01T13:24:12.156Z,21.04
2018-09-01T13:26:40.303Z,20.71
2018-09-01T13:34:01.362Z,13.49
2018-09-01T13:36:29.707Z,13.13
2018-09-01T13:38:58.236Z,13.12
2018-09-01T13:41:26.744Z,15.41
2018-09-01T13:43:55.407Z,12.02
2018-09-01T13:46:24.171Z,11.67
2018-09-01T13:48:52.284Z,12.09
2018-09-01T13:51:21.542Z,18.18
2018-09-01T13:53:49.839Z,19.92
2018-09-01T13:56:18.023Z,21.15
2018-09-01T13:58:46.228Z,21.69
2018-09-01T14:01:14.525Z,14.59
2018-09-01T14:03:42.749Z,14.70
2018-09-01T14:06:11.203Z,11.63
2018-09-01T14:08:40.008Z,11.29
2018-09-01T14:11:08.592Z,10.93
2018-09-01T14:13:36.678Z,10.84
2018-09-01T14:16:04.774Z,10.76
2018-09-01T14:18:33.191Z,10.48
2018-09-01T14:21:01.422Z,10.68
2018-09-01T14:23:29.488Z,10.88
2018-09-01T14:25:57.736Z,9.95
2018-09-01T14:28:26.016Z,14.18
2018-09-01T14:30:54.268Z,17.28
2018-09-01T14:33:23.744Z,13.96
2018-09-01T14:35:52.251Z,10.50
2018-09-01T14:38:20.488Z,10.58
2018-09-01T14:40:48.670Z,10.51
2018-09-01T14:43:16.865Z,10.73
2018-09-01T14:45:46.169Z,10.51
2018-09-01T14:48:14.336Z,10.13
2018-09-01T14:50:42.500Z,10.17
2018-09-01T14:55:51.336Z,12.33
2018-09-01T14:58:19.518Z,10.10
2018-09-01T15:00:47.700Z,9.97
2018-09-01T15:03:15.952Z,10.19
2018-09-01T15:05:44.067Z,10.36
2018-09-01T15:08:12.248Z,9.76
2018-09-01T15:10:41.293Z,9.18
2018-09-01T15:13:09.945Z,10.04
2018-09-01T15:15:38.076Z,10.08
2018-09-01T15:18:06.207Z,10.56
2018-09-01T15:20:34.380Z,10.76
2018-09-01T15:23:02.718Z,11.47
2018-09-01T15:25:31.093Z,10.26
2018-09-01T15:27:59.187Z,9.22
2018-09-01T15:30:27.316Z,10.15
2018-09-01T15:32:55.703Z,10.38
2018-09-01T15:35:24.178Z,10.16
2018-09-01T15:37:52.428Z,10.30
2018-09-01T15:40:20.838Z,10.17
2018-09-01T15:42:49.169Z,10.64
2018-09-01T15:45:19.111Z,10.64
2018-09-01T15:47:47.546Z,10.78
2018-09-01T15:50:18.333Z,10.09
2018-09-01T15:52:46.817Z,10.33
2018-09-01T15:55:15.589Z,9.81
2018-09-01T15:57:44.070Z,10.76
2018-09-01T16:00:12.229Z,11.16
2018-09-01T16:02:40.428Z,11.53
2018-09-01T16:05:08.538Z,10.70
2018-09-01T16:07:36.743Z,11.23
2018-09-01T16:10:05.095Z,10.35
2018-09-01T16:12:33.350Z,11.76
2018-09-01T16:15:01.616Z,12.00
2018-09-01T16:17:29.746Z,11.62
2018-09-01T16:19:57.940Z,11.86
2018-09-01T16:22:27.187Z,11.48
2018-09-01T16:24:55.362Z,11.79
2018-09-01T16:27:25.339Z,11.88
2018-09-01T16:29:54.399Z,12.17
2018-09-01T16:32:22.571Z,12.96
2018-09-01T16:34:50.845Z,13.02
2018-09-01T16:37:19.231Z,12.83
2018-09-01T16:39:47.405Z,14.79
2018-09-01T16:42:15.665Z,18.01
2018-09-01T16:44:43.916Z,18.92
2018-09-01T16:47:12.133Z,20.60
2018-09-01T16:49:40.427Z,20.20
2018-09-01T16:52:08.628Z,20.74
2018-09-01T16:54:36.665Z,20.24
2018-09-01T16:57:04.856Z,21.04
2018-09-01T16:59:33.054Z,20.22
2018-09-01T17:02:01.115Z,20.97
2018-09-01T17:04:29.292Z,20.77
2018-09-01T17:06:57.432Z,20.92
2018-09-01T17:09:25.937Z,22.02
2018-09-01T17:11:54.619Z,22.50
2018-09-01T17:14:26.117Z,22.26
2018-09-01T17:16:54.204Z,23.01
2018-09-01T17:19:22.333Z,23.05
2018-09-01T17:21:53.732Z,23.48
2018-09-01T17:24:21.924Z,23.34
2018-09-01T17:26:50.059Z,24.32
2018-09-01T17:29:18.150Z,22.60
2018-09-01T17:31:46.252Z,24.24
2018-09-01T17:34:14.352Z,23.55
2018-09-01T17:36:42.487Z,24.16
2018-09-01T17:39:11.986Z,24.58
2018-09-01T17:41:41.097Z,24.70
2018-09-01T17:44:09.222Z,24.83
2018-09-01T17:46:37.279Z,24.10
2018-09-01T17:49:05.485Z,24.65
2018-09-01T17:51:33.776Z,24.79
2018-09-01T17:54:02.026Z,24.93
2018-09-01T17:56:30.280Z,25.09
2018-09-01T17:58:58.350Z,24.86
2018-09-01T18:01:33.333Z,25.89
2018-09-01T18:04:01.477Z,25.80
2018-09-01T18:06:30.907Z,25.99
2018-09-01T18:09:00.802Z,25.01
2018-09-01T18:11:29.438Z,25.69
2018-09-01T18:13:59.735Z,26.10
2018-09-01T18:16:30.917Z,26.12
2018-09-01T18:18:59.519Z,26.51
2018-09-01T18:21:27.695Z,27.57
2018-09-01T18:23:55.881Z,26.51
2018-09-01T18:26:23.997Z,26.57
2018-09-01T18:28:52.071Z,26.46
2018-09-01T18:31:20.220Z,26.73
2018-09-01T18:33:48.339Z,26.98
2018-09-01T18:36:16.864Z,26.65
2018-09-01T18:38:45.981Z,26.49
2018-09-01T18:41:14.233Z,27.26
2018-09-01T18:43:42.539Z,27.02
2018-09-01T18:46:11.135Z,27.35
2018-09-01T18:48:39.245Z,27.00
2018-09-01T18:51:07.457Z,27.38
2018-09-01T18:53:35.509Z,27.32
2018-09-01T18:56:03.575Z,27.99
2018-09-01T18:58:31.869Z,27.59
2018-09-01T19:01:00.055Z,28.54
2018-09-01T19:03:28.321Z,28.68
2018-09-01T19:05:56.449Z,27.92
2018-09-01T19:08:24.623Z,28.57
2018-09-01T19:10:52.726Z,27.97
2018-09-01T19:13:20.834Z,29.00
2018-09-01T19:15:48.992Z,28.92
2018-09-01T19:18:17.219Z,28.41
2018-09-01T19:20:45.307Z,29.18
2018-09-01T19:23:13.459Z,28.51
2018-09-01T19:25:41.582Z,29.32
2018-09-01T19:28:09.703Z,29.61
2018-09-01T19:30:37.818Z,29.23
2018-09-01T19:33:06.331Z,29.76
2018-09-01T19:35:34.497Z,29.97
2018-09-01T19:38:02.571Z,29.96
2018-09-01T19:40:31.236Z,30.42
2018-09-01T19:42:59.461Z,29.88
2018-09-01T19:45:27.968Z,30.71
2018-09-01T19:47:56.035Z,30.39
2018-09-01T19:50:24.226Z,31.05
2018-09-01T19:52:52.699Z,30.92
2018-09-01T19:55:21.440Z,30.55
2018-09-01T19:57:49.547Z,31.51
2018-09-01T20:00:17.771Z,31.17
2018-09-01T20:02:45.924Z,31.53
2018-09-01T20:05:14.110Z,31.84
2018-09-01T20:07:42.594Z,32.17
2018-09-01T20:10:11.421Z,30.94
2018-09-01T20:12:39.505Z,31.28
2018-09-01T20:15:07.699Z,31.59
2018-09-01T20:17:35.845Z,32.07
2018-09-01T20:20:04.239Z,31.72
2018-09-01T20:22:32.340Z,32.57
2018-09-01T20:25:00.405Z,32.09
2018-09-01T20:27:28.559Z,32.54
2018-09-01T20:29:56.663Z,32.03
2018-09-01T20:32:24.761Z,32.63
2018-09-01T20:34:52.931Z,33.02
2018-09-01T20:37:21.890Z,32.73
2018-09-01T20:39:50.629Z,32.80
2018-09-01T20:42:18.715Z,33.46
2018-09-01T20:44:47.567Z,33.44
2018-09-01T20:47:16.021Z,32.99
2018-09-01T20:49:44.108Z,33.67
2018-09-01T20:52:12.359Z,33.85
2018-09-01T20:54:41.686Z,33.93
2018-09-01T20:57:09.757Z,34.36
2018-09-01T20:59:37.949Z,34.34
2018-09-01T21:02:06.024Z,34.04
2018-09-01T21:04:34.379Z,34.14
2018-09-01T21:07:02.658Z,34.84
2018-09-01T21:09:31.051Z,34.43
2018-09-01T21:12:00.333Z,34.97
2018-09-01T21:14:29.019Z,35.57
2018-09-01T21:16:57.108Z,35.23
2018-09-01T21:19:25.201Z,36.07
2018-09-01T21:21:53.316Z,35.28
2018-09-01T21:24:21.868Z,35.26
2018-09-01T21:26:50.071Z,35.88
2018-09-01T21:29:18.347Z,35.49
2018-09-01T21:31:46.571Z,35.20
2018-09-01T21:34:21.397Z,35.79
2018-09-01T21:37:22.875Z,35.91
2018-09-01T21:39:51.358Z,36.21
2018-09-01T21:42:19.904Z,36.25
2018-09-01T21:44:48.401Z,35.88
2018-09-01T21:47:16.686Z,36.71
2018-09-01T21:49:45.006Z,36.99
2018-09-01T21:52:13.118Z,37.08
2018-09-01T21:54:42.009Z,37.28
2018-09-01T21:57:10.898Z,37.50
2018-09-01T21:59:39.016Z,37.40
2018-09-01T22:02:12.583Z,36.68
2018-09-01T22:09:35.253Z,37.75
2018-09-01T22:12:04.245Z,38.00
2018-09-01T22:14:33.474Z,37.85
2018-09-01T22:17:01.935Z,37.88
2018-09-01T22:19:30.383Z,38.03
2018-09-01T22:21:59.126Z,37.75
2018-09-01T22:24:29.123Z,37.80
2018-09-01T22:26:57.733Z,38.30
2018-09-01T22:29:26.700Z,38.02
2018-09-01T22:31:54.822Z,38.56
2018-09-01T22:34:23.142Z,38.25
2018-09-01T22:36:51.251Z,38.54
2018-09-01T22:39:20.545Z,38.58
2018-09-01T22:41:48.983Z,38.93
2018-09-01T22:44:17.384Z,38.61
2018-09-01T22:46:45.567Z,38.93
2018-09-01T22:49:13.765Z,39.25
2018-09-01T22:51:42.096Z,38.87
2018-09-01T22:54:10.462Z,39.08
2018-09-01T22:56:38.806Z,39.92
2018-09-01T22:59:07.492Z,39.27
2018-09-01T23:01:35.564Z,39.51
2018-09-01T23:04:04.198Z,39.87
2018-09-01T23:06:32.596Z,39.92
2018-09-01T23:09:00.906Z,40.26
2018-09-01T23:11:29.445Z,40.75
2018-09-01T23:13:57.921Z,40.57
2018-09-01T23:16:26.910Z,40.54
2018-09-01T23:18:55.500Z,41.26
2018-09-01T23:21:23.824Z,41.28
2018-09-01T23:23:52.203Z,40.79
2018-09-01T23:26:20.317Z,40.84
2018-09-01T23:28:48.441Z,41.87
2018-09-01T23:31:16.559Z,41.30
2018-09-01T23:33:44.748Z,41.55
2018-09-01T23:36:12.879Z,41.77
2018-09-01T23:38:40.995Z,41.49
2018-09-01T23:41:09.154Z,42.06
2018-09-01T23:43:37.291Z,42.43
2018-09-01T23:46:08.132Z,42.35
2018-09-01T23:48:36.257Z,42.20
2018-09-01T23:51:04.446Z,42.43
2018-09-01T23:53:32.607Z,42.45
2018-09-01T23:56:01.955Z,42.56
2018-09-01T23:58:30.083Z,43.18
